Time;durP1;ratioP1;P1;durP2;ratioP2;P2;SDS_P1;SDS_P2;PMS_P1;PMS_P2;Temp;Humidity;BMP_temperature;BMP_pressure;BME280_temperature;BME280_humidity;BME280_pressure;Samples;Min_cycle;Max_cycle;Signal;HPM_P1;HPM_P2
2021/01/21 00:02:09;;;;;;;;;;;;;;;;;;;;;
2021/01/21 00:04:45;;;;;;;15.85;11.35;;;5.30;99.90;;;;;;4996589;28;20098;-78
2021/01/21 00:07:21;;;;;;;12.50;10.65;;;5.10;99.90;;;;;;4987993;28;20023;-78
2021/01/21 00:10:00;;;;;;;14.25;10.73;;;5.00;99.90;;;;;;4994782;28;20029;-78
2021/01/21 00:12:35;;;;;;;13.10;9.63;;;5.00;99.90;;;;;;5010750;28;20045;-79
2021/01/21 00:15:14;;;;;;;13.73;9.98;;;5.00;99.90;;;;;;5009931;28;20030;-77
2021/01/21 00:17:40;;;;;;;11.75;10.05;;;5.00;99.90;;;;;;4995582;28;20041;-77
2021/01/21 00:20:11;;;;;;;9.27;7.03;;;5.00;99.90;;;;;;4997106;28;20054;-76
2021/01/21 00:22:36;;;;;;;14.90;9.10;;;5.10;99.90;;;;;;4996809;28;20091;-76
2021/01/21 00:25:13;;;;;;;9.32;7.28;;;5.20;99.90;;;;;;4998778;28;20054;-77
2021/01/21 00:27:52;;;;;;;11.18;7.78;;;5.20;99.90;;;;;;4995462;28;20054;-77
2021/01/21 00:30:18;;;;;;;11.93;7.95;;;5.20;99.90;;;;;;5002432;28;20030;-78
2021/01/21 00:32:46;;;;;;;8.95;7.00;;;5.30;99.90;;;;;;4997820;28;20057;-76
2021/01/21 00:35:16;;;;;;;7.45;6.38;;;5.30;99.90;;;;;;4990712;28;20114;-77
2021/01/21 00:37:42;;;;;;;8.38;6.55;;;5.30;99.90;;;;;;4993621;28;20058;-75
2021/01/21 00:40:08;;;;;;;7.70;5.57;;;5.40;99.90;;;;;;5000477;28;20034;-75
2021/01/21 00:42:36;;;;;;;6.60;5.25;;;5.40;99.90;;;;;;5000280;28;20065;-75
2021/01/21 00:45:03;;;;;;;6.25;5.20;;;5.50;99.90;;;;;;4999556;28;20030;-77
2021/01/21 00:47:29;;;;;;;6.03;4.65;;;5.50;90.40;;;;;;5003653;28;20091;-75
2021/01/21 00:49:59;;;;;;;7.57;5.60;;;5.50;99.90;;;;;;5016691;28;20034;-76
2021/01/21 00:52:24;;;;;;;5.70;5.13;;;5.50;99.90;;;;;;5011188;28;20078;-76
2021/01/21 00:54:50;;;;;;;9.05;7.00;;;5.50;99.90;;;;;;5004420;28;20030;-76
2021/01/21 00:57:16;;;;;;;8.15;7.22;;;5.60;99.90;;;;;;5002999;28;20118;-76
2021/01/21 00:59:42;;;;;;;10.05;7.75;;;5.80;40.90;;;;;;4999184;28;20026;-75
2021/01/21 01:02:07;;;;;;;13.10;7.28;;;5.90;48.30;;;;;;4980635;28;20027;-75
2021/01/21 01:04:33;;;;;;;10.35;7.00;;;5.80;99.90;;;;;;4985962;28;20057;-74
2021/01/21 01:06:59;;;;;;;7.82;6.50;;;5.70;99.90;;;;;;4998564;28;20054;-75
2021/01/21 01:09:30;;;;;;;8.50;7.10;;;5.70;99.90;;;;;;4997023;28;20039;-74
2021/01/21 01:11:56;;;;;;;13.52;9.27;;;5.60;99.90;;;;;;4992135;28;20031;-75
2021/01/21 01:14:22;;;;;;;13.95;7.28;;;5.60;99.90;;;;;;4987023;28;20031;-75
2021/01/21 01:16:50;;;;;;;13.07;8.77;;;5.60;99.90;;;;;;4993748;28;20402;-75
2021/01/21 01:19:18;;;;;;;9.30;8.30;;;5.60;99.90;;;;;;4989636;28;20033;-77
2021/01/21 01:21:44;;;;;;;11.05;7.15;;;5.50;99.90;;;;;;4991855;28;20050;-77
2021/01/21 01:24:09;;;;;;;10.27;7.82;;;5.50;99.90;;;;;;5000571;28;20038;-74
2021/01/21 01:26:35;;;;;;;9.07;7.85;;;5.50;99.90;;;;;;5001231;28;20593;-75
2021/01/21 01:29:01;;;;;;;9.85;7.95;;;5.50;99.90;;;;;;4995038;28;20399;-73
2021/01/21 01:31:26;;;;;;;8.88;7.65;;;5.50;99.90;;;;;;5007247;28;20026;-73
2021/01/21 01:33:52;;;;;;;9.18;6.80;;;5.50;99.90;;;;;;5011400;28;20037;-74
2021/01/21 01:36:18;;;;;;;8.60;6.82;;;5.50;99.90;;;;;;4996375;28;20031;-74
2021/01/21 01:38:43;;;;;;;6.68;5.85;;;5.60;99.90;;;;;;5007654;28;20027;-74
2021/01/21 01:41:09;;;;;;;10.05;7.18;;;5.60;99.90;;;;;;4994735;28;20067;-74
2021/01/21 01:43:35;;;;;;;9.20;7.70;;;5.70;98.70;;;;;;5008931;28;20030;-74
2021/01/21 01:46:00;;;;;;;6.78;5.57;;;5.70;99.90;;;;;;4996899;28;20062;-74
2021/01/21 01:48:26;;;;;;;7.05;5.95;;;5.70;38.20;;;;;;5008577;28;20027;-75
2021/01/21 01:50:52;;;;;;;5.43;3.97;;;5.80;99.90;;;;;;5012164;28;20038;-75
2021/01/21 01:53:17;;;;;;;5.43;3.67;;;5.90;1.00;;;;;;5010629;28;20098;-75
2021/01/21 01:55:43;;;;;;;4.97;3.40;;;5.90;99.90;;;;;;5005459;28;20042;-75
2021/01/21 01:58:09;;;;;;;3.53;2.85;;;6.20;99.90;;;;;;5005647;28;20041;-74
2021/01/21 02:00:35;;;;;;;2.97;2.38;;;6.30;99.90;;;;;;5025612;28;20034;-74
2021/01/21 02:03:01;;;;;;;3.40;2.75;;;6.40;59.10;;;;;;5004509;28;20054;-76
2021/01/21 02:05:27;;;;;;;4.25;2.22;;;6.60;1.00;;;;;;5001242;28;20031;-75
2021/01/21 02:07:53;;;;;;;4.38;2.03;;;6.70;99.90;;;;;;4998520;28;20090;-75
2021/01/21 02:10:19;;;;;;;2.78;2.00;;;6.90;25.80;;;;;;4992447;28;20038;-75
2021/01/21 02:13:17;;;;;;;2.35;1.70;;;7.00;1.00;;;;;;4992032;28;20030;-76
2021/01/21 02:16:08;;;;;;;2.60;1.85;;;7.10;1.00;;;;;;4996905;28;20050;-75
2021/01/21 02:18:41;;;;;;;2.38;1.80;;;7.10;99.90;;;;;;4995958;28;20116;-75
2021/01/21 02:21:41;;;;;;;2.88;1.50;;;7.10;99.90;;;;;;4990661;28;20054;-75
2021/01/21 02:24:34;;;;;;;3.63;1.52;;;7.00;99.90;;;;;;4995075;28;20035;-76
2021/01/21 02:27:05;;;;;;;1.92;1.40;;;7.10;99.50;;;;;;4988605;28;20159;-75
2021/01/21 02:29:32;;;;;;;5.00;2.38;;;7.20;99.90;;;;;;4994321;28;20029;-75
2021/01/21 02:32:01;;;;;;;4.40;2.78;;;7.30;1.00;;;;;;4995739;28;20089;-76
2021/01/21 02:35:01;;;;;;;5.18;2.63;;;7.20;1.00;;;;;;5002706;28;20037;-75
2021/01/21 02:37:28;;;;;;;7.47;1.80;;;7.10;34.70;;;;;;5009532;28;20030;-75
2021/01/21 02:39:57;;;;;;;3.85;1.80;;;7.00;1.00;;;;;;5013463;28;20027;-75
2021/01/21 02:42:23;;;;;;;2.70;1.60;;;7.20;99.90;;;;;;5015612;28;20037;-77
2021/01/21 02:44:49;;;;;;;3.53;2.22;;;7.40;1.00;;;;;;5005973;28;20034;-74
2021/01/21 02:47:16;;;;;;;2.83;1.90;;;7.40;1.00;;;;;;5013661;28;20030;-73
2021/01/21 02:49:42;;;;;;;6.63;3.65;;;7.40;1.00;;;;;;5005436;28;20023;-74
2021/01/21 02:52:23;;;;;;;2.38;1.70;;;7.50;1.00;;;;;;5006779;28;20475;-73
2021/01/21 02:55:01;;;;;;;6.70;3.97;;;7.40;99.90;;;;;;4996857;28;20032;-74
2021/01/21 02:57:44;;;;;;;2.70;1.83;;;7.40;99.90;;;;;;5004199;28;20094;-74
2021/01/21 03:00:11;;;;;;;2.50;2.03;;;7.40;99.90;;;;;;4995494;28;20022;-74
2021/01/21 03:02:44;;;;;;;3.20;1.85;;;7.40;99.90;;;;;;5000441;28;20036;-76
2021/01/21 03:05:12;;;;;;;8.73;2.20;;;7.40;99.90;;;;;;4999532;28;20030;-75
2021/01/21 03:07:39;;;;;;;4.35;2.00;;;7.40;99.90;;;;;;4993978;28;20113;-75
2021/01/21 03:10:06;;;;;;;3.50;1.60;;;7.40;99.90;;;;;;5018299;28;20042;-75
2021/01/21 03:12:32;;;;;;;3.28;1.15;;;7.40;99.90;;;;;;4993151;28;20037;-75
2021/01/21 03:14:57;;;;;;;1.50;1.05;;;7.40;99.90;;;;;;4995347;28;20030;-76
2021/01/21 03:17:25;;;;;;;3.25;1.50;;;7.40;99.40;;;;;;4994449;28;20442;-76
2021/01/21 03:19:51;;;;;;;4.53;1.45;;;7.40;99.90;;;;;;4993760;28;20054;-75
2021/01/21 03:22:16;;;;;;;1.55;1.20;;;7.40;99.90;;;;;;4988863;28;20026;-75
2021/01/21 03:24:42;;;;;;;2.50;1.27;;;7.50;1.00;;;;;;4990506;28;20026;-75
2021/01/21 03:27:08;;;;;;;1.48;1.23;;;7.50;99.90;;;;;;4985678;28;20513;-75
2021/01/21 03:29:34;;;;;;;1.10;0.98;;;7.60;34.80;;;;;;4999196;28;20054;-75
2021/01/21 03:31:59;;;;;;;1.02;0.88;;;7.60;1.00;;;;;;4990808;28;20627;-75
2021/01/21 03:34:25;;;;;;;1.75;1.00;;;7.90;99.90;;;;;;4988654;28;20027;-74
2021/01/21 03:36:50;;;;;;;1.05;0.80;;;8.00;1.00;;;;;;4986661;28;20398;-75
2021/01/21 03:39:16;;;;;;;1.60;0.98;;;8.20;99.90;;;;;;4995102;28;20015;-75
2021/01/21 03:41:42;;;;;;;1.50;1.00;;;8.30;99.90;;;;;;4985201;28;20050;-75
2021/01/21 03:44:08;;;;;;;1.00;0.93;;;8.40;99.90;;;;;;4999323;28;20018;-75
2021/01/21 03:46:34;;;;;;;2.10;1.23;;;8.50;99.90;;;;;;4991892;28;20054;-75
2021/01/21 03:49:00;;;;;;;6.03;1.30;;;8.50;99.90;;;;;;4993070;28;20030;-75
2021/01/21 03:51:25;;;;;;;2.05;1.10;;;8.50;99.90;;;;;;4983779;28;20026;-75
2021/01/21 03:53:51;;;;;;;1.20;1.00;;;8.60;99.90;;;;;;4983615;28;20498;-75
2021/01/21 03:56:17;;;;;;;0.85;0.85;;;8.50;99.90;;;;;;4995093;28;20438;-75
2021/01/21 03:58:43;;;;;;;1.92;0.95;;;8.50;99.90;;;;;;4987746;28;20027;-75
2021/01/21 04:01:08;;;;;;;1.00;0.90;;;8.50;99.90;;;;;;4987761;28;20031;-75
2021/01/21 04:03:34;;;;;;;1.33;0.80;;;8.50;99.90;;;;;;4990511;28;20026;-75
2021/01/21 04:06:00;;;;;;;1.00;0.90;;;8.50;99.90;;;;;;4988189;28;20023;-75
2021/01/21 04:08:26;;;;;;;1.77;1.10;;;8.50;99.90;;;;;;4994495;28;20066;-74
2021/01/21 04:10:52;;;;;;;3.15;0.95;;;8.60;99.90;;;;;;4987459;28;20129;-76
2021/01/21 04:13:18;;;;;;;1.60;0.80;;;8.50;99.90;;;;;;4987277;28;20451;-74
2021/01/21 04:15:45;;;;;;;0.80;0.80;;;8.50;99.90;;;;;;4997456;28;20030;-75
2021/01/21 04:18:10;;;;;;;1.67;0.93;;;8.50;99.90;;;;;;4990381;28;20419;-74
2021/01/21 04:20:36;;;;;;;2.05;0.75;;;8.50;99.90;;;;;;4993163;28;20165;-74
2021/01/21 04:23:02;;;;;;;1.17;0.80;;;8.40;1.00;;;;;;4987587;28;20027;-75
2021/01/21 04:25:27;;;;;;;1.25;0.70;;;8.40;1.00;;;;;;4987874;28;20462;-74
2021/01/21 04:27:53;;;;;;;2.30;1.48;;;8.40;1.00;;;;;;4986734;28;20491;-74
2021/01/21 04:30:19;;;;;;;3.20;1.38;;;8.20;99.90;;;;;;4991289;28;20045;-76
2021/01/21 04:32:44;;;;;;;1.70;1.15;;;8.20;99.90;;;;;;4992998;28;20398;-74
2021/01/21 04:35:10;;;;;;;2.13;1.08;;;8.30;94.00;;;;;;4991154;28;20085;-74
2021/01/21 04:37:36;;;;;;;2.70;0.95;;;8.20;99.90;;;;;;4984498;28;20521;-75
2021/01/21 04:40:02;;;;;;;1.58;1.02;;;8.20;99.90;;;;;;4995485;28;20019;-75
2021/01/21 04:42:28;;;;;;;3.00;0.80;;;8.20;99.90;;;;;;4981535;28;20031;-75
2021/01/21 04:44:54;;;;;;;1.42;0.98;;;8.40;12.70;;;;;;4987568;28;20026;-75
2021/01/21 04:47:21;;;;;;;2.05;1.00;;;8.30;99.90;;;;;;4986698;28;20042;-74
2021/01/21 04:49:47;;;;;;;2.45;0.90;;;8.30;99.90;;;;;;4987410;28;20034;-75
2021/01/21 04:52:15;;;;;;;1.90;0.80;;;8.40;18.70;;;;;;4996825;28;20062;-75
2021/01/21 04:55:00;;;;;;;1.48;0.85;;;8.40;1.00;;;;;;4990700;28;20105;-75
2021/01/21 04:57:42;;;;;;;0.80;0.80;;;8.40;31.20;;;;;;4993736;28;20030;-74
2021/01/21 05:00:09;;;;;;;1.70;0.70;;;8.40;1.00;;;;;;4982339;28;20031;-75
2021/01/21 05:02:38;;;;;;;2.13;1.13;;;8.50;99.90;;;;;;4998200;28;20040;-76
2021/01/21 05:05:09;;;;;;;2.97;1.02;;;8.80;99.90;;;;;;4991604;28;20395;-76
2021/01/21 05:07:35;;;;;;;;;;;8.80;99.90;;;;;;4988143;28;20041;-76
2021/01/21 05:10:01;;;;;;;0.77;0.77;;;8.80;99.90;;;;;;4998184;28;19964;-76
2021/01/21 05:12:27;;;;;;;1.23;0.85;;;9.00;1.00;;;;;;4991008;28;20058;-76
2021/01/21 05:14:53;;;;;;;1.60;0.68;;;9.00;1.00;;;;;;5014005;28;20022;-75
2021/01/21 05:17:18;;;;;;;1.20;0.77;;;9.00;1.00;;;;;;4988708;28;20129;-75
2021/01/21 05:19:46;;;;;;;3.50;0.77;;;8.90;51.60;;;;;;4984024;28;20022;-77
2021/01/21 05:22:12;;;;;;;1.45;0.60;;;9.00;1.00;;;;;;4984061;28;20054;-77
2021/01/21 05:24:37;;;;;;;2.08;0.60;;;9.10;1.00;;;;;;4998382;28;20026;-76
2021/01/21 05:27:03;;;;;;;12.10;1.85;;;9.10;1.00;;;;;;4994029;28;20027;-76
2021/01/21 05:29:30;;;;;;;2.70;0.70;;;9.10;1.00;;;;;;4990960;28;20049;-75
2021/01/21 05:31:55;;;;;;;3.03;0.60;;;9.10;1.00;;;;;;4996043;28;20094;-75
2021/01/21 05:34:22;;;;;;;1.67;1.15;;;9.20;99.90;;;;;;4999540;28;20034;-75
2021/01/21 05:36:48;;;;;;;0.88;0.63;;;9.10;1.00;;;;;;5012935;28;20117;-75
2021/01/21 05:39:16;;;;;;;2.70;0.73;;;9.10;1.00;;;;;;4997393;28;20298;-74
2021/01/21 05:41:41;;;;;;;3.70;0.77;;;9.10;1.00;;;;;;5001920;28;20557;-75
2021/01/21 05:44:07;;;;;;;3.78;0.90;;;9.00;1.00;;;;;;4994441;28;20065;-76
2021/01/21 05:46:35;;;;;;;2.42;0.70;;;8.90;90.90;;;;;;4991400;28;20042;-75
2021/01/21 05:49:01;;;;;;;2.85;0.82;;;9.10;1.00;;;;;;4993356;28;20410;-75
2021/01/21 05:51:29;;;;;;;1.15;0.70;;;9.20;1.00;;;;;;4999477;28;20026;-76
2021/01/21 05:53:55;;;;;;;2.90;0.73;;;9.40;99.90;;;;;;4988711;28;20407;-75
2021/01/21 05:56:30;;;;;;;1.30;0.70;;;9.50;99.90;;;;;;4991748;28;20038;-75
2021/01/21 05:58:56;;;;;;;2.40;0.70;;;9.50;99.90;;;;;;4989879;28;20440;-76
2021/01/21 06:01:24;;;;;;;1.90;1.05;;;9.50;99.90;;;;;;4987740;28;20025;-75
2021/01/21 06:03:51;;;;;;;3.03;2.60;;;9.50;99.90;;;;;;4988352;28;20109;-76
2021/01/21 06:06:17;;;;;;;3.42;2.80;;;9.60;99.90;;;;;;4991436;28;20055;-75
2021/01/21 06:08:44;;;;;;;4.38;1.80;;;9.60;99.90;;;;;;5002073;28;20038;-75
2021/01/21 06:11:12;;;;;;;3.10;1.13;;;9.50;99.90;;;;;;4999106;28;20385;-75
2021/01/21 06:13:39;;;;;;;3.13;1.30;;;9.60;99.90;;;;;;4994364;28;20027;-75
2021/01/21 06:16:07;;;;;;;2.17;0.88;;;9.60;99.90;;;;;;4991114;28;20034;-75
2021/01/21 06:18:33;;;;;;;1.77;0.80;;;9.60;99.90;;;;;;4991983;28;20062;-74
2021/01/21 06:21:00;;;;;;;2.13;0.68;;;9.60;99.90;;;;;;4994206;28;20027;-76
2021/01/21 06:23:27;;;;;;;1.63;1.08;;;9.70;99.90;;;;;;4993539;28;20038;-75
2021/01/21 06:25:54;;;;;;;1.98;1.13;;;9.80;99.90;;;;;;5010172;28;20018;-77
2021/01/21 06:28:21;;;;;;;0.80;0.70;;;9.80;99.90;;;;;;4994729;28;20049;-75
2021/01/21 06:30:58;;;;;;;2.05;0.70;;;9.70;99.90;;;;;;4993260;28;20030;-77
2021/01/21 06:33:33;;;;;;;1.65;0.80;;;9.70;99.90;;;;;;4993343;28;20030;-75
2021/01/21 06:36:07;;;;;;;3.17;1.17;;;9.70;99.90;;;;;;4994213;28;20030;-75
2021/01/21 06:38:39;;;;;;;1.80;1.10;;;9.80;52.70;;;;;;4995741;28;20037;-75
2021/01/21 06:41:10;;;;;;;5.53;1.77;;;9.80;95.00;;;;;;4986556;28;20038;-75
2021/01/21 06:43:38;;;;;;;2.28;0.80;;;9.80;62.00;;;;;;4989017;28;20046;-75
2021/01/21 06:46:04;;;;;;;3.05;1.05;;;9.80;99.90;;;;;;4987624;28;20053;-76
2021/01/21 06:48:30;;;;;;;3.50;0.90;;;9.70;99.90;;;;;;4993375;28;20022;-75
2021/01/21 06:50:56;;;;;;;2.08;0.85;;;9.70;99.90;;;;;;4989690;28;20034;-75
2021/01/21 06:53:22;;;;;;;2.15;0.85;;;9.90;99.90;;;;;;4984886;28;20030;-74
2021/01/21 06:55:51;;;;;;;4.50;0.80;;;9.90;95.10;;;;;;4993434;28;20058;-75
2021/01/21 06:58:45;;;;;;;0.65;0.65;;;9.90;99.90;;;;;;4987540;28;20500;-75
2021/01/21 07:01:32;;;;;;;3.08;1.05;;;9.90;99.90;;;;;;4989471;28;20023;-74
2021/01/21 07:04:04;;;;;;;2.03;0.90;;;10.00;99.90;;;;;;4994834;28;20149;-76
2021/01/21 07:06:57;;;;;;;1.48;1.25;;;10.00;99.90;;;;;;4987448;28;20085;-76
2021/01/21 07:09:25;;;;;;;3.58;1.33;;;10.10;99.90;;;;;;4992813;28;20035;-75
2021/01/21 07:11:55;;;;;;;2.38;0.90;;;10.10;99.90;;;;;;4994051;28;20033;-75
2021/01/21 07:14:22;;;;;;;1.30;1.10;;;10.20;1.00;;;;;;4991433;28;20030;-76
2021/01/21 07:16:49;;;;;;;11.32;0.90;;;10.20;99.90;;;;;;4986348;28;20037;-76
2021/01/21 07:19:15;;;;;;;2.42;0.85;;;10.20;99.90;;;;;;5003508;28;20017;-78
2021/01/21 07:21:51;;;;;;;1.77;0.93;;;10.30;99.90;;;;;;5007288;28;20530;-77
2021/01/21 07:24:21;;;;;;;1.92;0.75;;;10.40;1.00;;;;;;4990513;28;20059;-77
2021/01/21 07:26:53;;;;;;;1.80;1.03;;;10.40;99.90;;;;;;4990348;28;20022;-75
2021/01/21 07:29:20;;;;;;;;;;;10.40;99.90;;;;;;4995211;28;20281;-75
2021/01/21 07:31:51;;;;;;;3.20;0.85;;;10.40;1.00;;;;;;4988580;28;20602;-75
2021/01/21 07:34:28;;;;;;;1.83;0.88;;;10.40;99.90;;;;;;4993310;28;20433;-75
2021/01/21 07:37:24;;;;;;;4.78;0.82;;;10.40;1.00;;;;;;4982725;28;20038;-76
2021/01/21 07:39:59;;;;;;;2.33;0.60;;;10.40;14.20;;;;;;4979107;28;20077;-74
2021/01/21 07:42:37;;;;;;;1.02;0.68;;;10.40;99.90;;;;;;4985539;28;20049;-77
2021/01/21 07:45:15;;;;;;;5.03;1.15;;;10.40;99.90;;;;;;4989635;28;20117;-76
2021/01/21 07:47:46;;;;;;;3.05;0.93;;;10.30;1.00;;;;;;4988212;28;20069;-76
2021/01/21 07:50:18;;;;;;;0.70;0.68;;;10.40;1.00;;;;;;4987999;28;20546;-77
2021/01/21 07:52:51;;;;;;;6.88;1.15;;;10.50;1.00;;;;;;4991833;28;20494;-76
2021/01/21 07:55:31;;;;;;;4.43;0.70;;;10.60;1.00;;;;;;5015000;28;20035;-76
2021/01/21 07:58:17;;;;;;;5.78;1.92;;;10.70;99.90;;;;;;5008274;28;20045;-74
2021/01/21 08:00:44;;;;;;;3.42;0.80;;;10.70;99.90;;;;;;5006934;28;20406;-75
2021/01/21 08:03:09;;;;;;;2.47;0.60;;;10.70;99.90;;;;;;4997312;28;20049;-76
2021/01/21 08:05:35;;;;;;;2.88;0.90;;;10.80;99.90;;;;;;4999010;28;20033;-75
2021/01/21 08:08:03;;;;;;;1.83;0.95;;;10.80;99.90;;;;;;5021630;23;20631;-70
2021/01/21 08:10:31;;;;;;;1.15;0.80;;;10.90;99.90;;;;;;5013711;28;20037;-71
2021/01/21 08:12:59;;;;;;;1.63;0.80;;;10.90;99.90;;;;;;5013646;28;20026;-72
2021/01/21 08:15:26;;;;;;;1.63;0.70;;;11.00;1.00;;;;;;5014065;28;20030;-72
2021/01/21 08:17:52;;;;;;;2.30;0.73;;;11.00;92.50;;;;;;5013387;28;20041;-71
2021/01/21 08:20:20;;;;;;;1.90;0.57;;;10.90;99.90;;;;;;5014030;28;20433;-71
2021/01/21 08:23:06;;;;;;;1.25;0.70;;;11.00;99.90;;;;;;5012617;28;20041;-72
2021/01/21 08:25:42;;;;;;;1.23;0.70;;;11.10;80.80;;;;;;5012691;28;20105;-72
2021/01/21 08:28:09;;;;;;;1.85;0.70;;;11.20;1.00;;;;;;5013779;28;20421;-70
2021/01/21 08:30:35;;;;;;;4.40;0.80;;;11.40;99.90;;;;;;5014178;28;20080;-71
2021/01/21 08:33:21;;;;;;;0.90;0.50;;;11.30;1.00;;;;;;5013815;28;20105;-72
2021/01/21 08:35:54;;;;;;;2.28;0.70;;;11.20;99.90;;;;;;5014146;28;20382;-72
2021/01/21 08:38:26;;;;;;;2.95;0.73;;;11.30;1.00;;;;;;5013694;28;20089;-72
2021/01/21 08:40:53;;;;;;;1.70;0.80;;;11.40;1.00;;;;;;5013011;28;20108;-71
2021/01/21 08:43:20;;;;;;;4.13;0.98;;;11.50;99.90;;;;;;5014539;28;20034;-71
2021/01/21 08:45:46;;;;;;;1.60;0.65;;;11.60;1.00;;;;;;5013863;28;20385;-72
2021/01/21 08:48:29;;;;;;;0.98;0.45;;;11.50;99.90;;;;;;5014992;28;20244;-71
2021/01/21 08:50:55;;;;;;;1.77;0.45;;;11.50;99.90;;;;;;5014895;28;20101;-71
2021/01/21 08:53:22;;;;;;;1.63;0.70;;;11.60;99.90;;;;;;5014075;28;20028;-72
2021/01/21 08:55:53;;;;;;;1.23;0.60;;;11.50;99.90;;;;;;5012880;28;20390;-72
2021/01/21 08:58:33;;;;;;;0.80;0.55;;;11.60;99.90;;;;;;5014318;28;20109;-72
2021/01/21 09:01:12;;;;;;;1.35;0.60;;;11.60;99.90;;;;;;5014404;28;20030;-71
2021/01/21 09:03:47;;;;;;;2.13;0.70;;;11.60;99.90;;;;;;5015874;28;20021;-72
2021/01/21 09:06:14;;;;;;;1.30;0.90;;;11.60;99.90;;;;;;5018200;28;20018;-72
2021/01/21 09:08:51;;;;;;;2.63;0.82;;;11.70;91.40;;;;;;5019215;28;20037;-71
2021/01/21 09:11:34;;;;;;;2.28;0.60;;;11.70;1.00;;;;;;5019524;28;20053;-71
2021/01/21 09:14:01;;;;;;;0.82;0.50;;;11.70;1.00;;;;;;5016468;28;20084;-73
2021/01/21 09:16:46;;;;;;;0.50;0.50;;;11.80;1.00;;;;;;5017952;28;20155;-72
2021/01/21 09:19:40;;;;;;;1.77;0.70;;;11.90;99.90;;;;;;5017903;28;20057;-72
2021/01/21 09:22:07;;;;;;;2.85;1.13;;;12.00;99.90;;;;;;5016449;28;20575;-72
2021/01/21 09:24:34;;;;;;;1.15;0.68;;;12.00;99.90;;;;;;5018793;28;20177;-70
2021/01/21 09:27:10;;;;;;;1.15;0.60;;;12.10;99.90;;;;;;5018714;28;20401;-70
2021/01/21 09:29:47;;;;;;;1.70;0.80;;;12.10;99.90;;;;;;5018462;28;20029;-73
2021/01/21 09:32:14;;;;;;;3.60;0.57;;;12.10;99.90;;;;;;5018801;28;20034;-72
2021/01/21 09:35:10;;;;;;;4.63;0.60;;;12.10;99.90;;;;;;5018625;28;20026;-72
2021/01/21 09:37:38;;;;;;;0.68;0.60;;;12.00;1.00;;;;;;5013807;28;20041;-71
2021/01/21 09:40:10;;;;;;;1.33;0.73;;;11.90;34.10;;;;;;5017708;28;20414;-71
2021/01/21 09:42:36;;;;;;;4.15;1.52;;;12.00;77.00;;;;;;5018621;28;20018;-72
2021/01/21 09:45:03;;;;;;;2.20;0.93;;;11.90;99.90;;;;;;5018518;28;20040;-72
2021/01/21 09:47:29;;;;;;;4.68;1.02;;;12.00;99.90;;;;;;5014861;28;20076;-71
2021/01/21 09:49:55;;;;;;;1.00;0.90;;;12.00;99.90;;;;;;5000458;28;20034;-72
2021/01/21 09:52:20;;;;;;;1.45;0.70;;;11.90;99.90;;;;;;5000583;28;20065;-72
2021/01/21 09:54:46;;;;;;;2.67;0.90;;;12.00;99.90;;;;;;4999685;28;20093;-72
2021/01/21 09:57:11;;;;;;;3.22;0.80;;;12.10;99.90;;;;;;5000423;28;20030;-71
2021/01/21 09:59:37;;;;;;;2.20;0.63;;;12.10;99.90;;;;;;5000164;28;20049;-73
2021/01/21 10:02:04;;;;;;;0.93;0.70;;;12.30;94.90;;;;;;5001154;28;20026;-72
2021/01/21 10:04:30;;;;;;;0.77;0.50;;;12.20;99.90;;;;;;5001855;28;20283;-72
2021/01/21 10:06:55;;;;;;;2.15;0.50;;;12.20;99.90;;;;;;5000639;28;20031;-72
2021/01/21 10:09:21;;;;;;;1.33;0.90;;;12.30;99.90;;;;;;4997063;28;20061;-72
2021/01/21 10:11:47;;;;;;;3.05;0.68;;;12.20;99.90;;;;;;4996486;28;20129;-71
2021/01/21 10:14:13;;;;;;;0.68;0.47;;;12.30;99.90;;;;;;4997274;28;20093;-72
2021/01/21 10:16:38;;;;;;;1.42;0.60;;;12.40;99.90;;;;;;4999341;28;20109;-72
2021/01/21 10:19:04;;;;;;;0.70;0.63;;;12.50;99.90;;;;;;5016239;28;20024;-71
2021/01/21 10:21:30;;;;;;;1.10;0.95;;;12.50;1.60;;;;;;5016250;28;20037;-72
2021/01/21 10:23:56;;;;;;;2.33;0.60;;;12.60;25.20;;;;;;5016613;28;20025;-76
2021/01/21 10:26:22;;;;;;;0.68;0.57;;;12.70;1.00;;;;;;5016497;28;20026;-70
2021/01/21 10:28:48;;;;;;;0.75;0.68;;;12.80;99.90;;;;;;5014806;28;20029;-71
2021/01/21 10:31:13;;;;;;;0.57;0.40;;;12.90;99.90;;;;;;5016270;28;20030;-72
2021/01/21 10:33:39;;;;;;;0.57;0.57;;;13.10;99.90;;;;;;5015871;28;20137;-71
2021/01/21 10:36:05;;;;;;;0.88;0.60;;;13.20;21.50;;;;;;5016368;28;20014;-71
2021/01/21 10:38:31;;;;;;;0.70;0.55;;;13.10;15.30;;;;;;5015860;28;20033;-72
2021/01/21 10:40:57;;;;;;;2.50;0.90;;;13.10;18.80;;;;;;5016358;28;20029;-74
2021/01/21 10:43:23;;;;;;;1.02;0.60;;;13.10;99.90;;;;;;5016569;28;20029;-72
2021/01/21 10:45:48;;;;;;;2.63;0.50;;;13.20;95.50;;;;;;5015786;28;20033;-71
2021/01/21 10:48:14;;;;;;;1.70;0.80;;;13.30;99.90;;;;;;5015498;28;20084;-72
2021/01/21 10:50:40;;;;;;;2.88;0.90;;;13.30;4.80;;;;;;5014624;28;20034;-72
2021/01/21 10:53:05;;;;;;;1.77;0.60;;;13.40;37.00;;;;;;5016223;28;20030;-72
2021/01/21 10:55:31;;;;;;;3.70;0.80;;;13.40;1.00;;;;;;5026550;28;20061;-72
2021/01/21 10:57:56;;;;;;;1.15;0.68;;;13.30;99.90;;;;;;5020697;28;20029;-72
2021/01/21 11:00:22;;;;;;;2.63;0.80;;;13.20;99.90;;;;;;5020307;28;20450;-73
2021/01/21 11:02:47;;;;;;;0.80;0.60;;;13.30;1.00;;;;;;5020963;28;20036;-72
2021/01/21 11:05:14;;;;;;;0.68;0.50;;;13.30;1.00;;;;;;5019465;28;20022;-71
2021/01/21 11:07:40;;;;;;;1.85;0.70;;;13.40;1.00;;;;;;5019649;28;20034;-71
2021/01/21 11:10:06;;;;;;;0.70;0.50;;;13.50;99.90;;;;;;5020174;28;20081;-72
2021/01/21 11:12:32;;;;;;;0.95;0.60;;;13.40;1.00;;;;;;5019391;28;20489;-72
2021/01/21 11:14:57;;;;;;;1.25;0.80;;;13.50;1.00;;;;;;5022389;28;20093;-71
2021/01/21 11:17:23;;;;;;;1.40;0.55;;;13.60;1.00;;;;;;5018695;28;20026;-71
2021/01/21 11:19:49;;;;;;;3.35;0.70;;;13.70;11.50;;;;;;5019506;28;20025;-71
2021/01/21 11:22:15;;;;;;;1.42;0.50;;;13.60;1.00;;;;;;5021260;28;20478;-71
2021/01/21 11:24:40;;;;;;;1.98;0.60;;;13.60;1.00;;;;;;5019877;28;20089;-70
2021/01/21 11:27:06;;;;;;;0.82;0.55;;;13.50;1.00;;;;;;5020352;28;20081;-71
2021/01/21 11:29:31;;;;;;;0.57;0.40;;;13.60;91.50;;;;;;5019809;28;20036;-71
2021/01/21 11:31:57;;;;;;;1.70;0.63;;;13.70;1.00;;;;;;5019290;28;20045;-72
2021/01/21 11:34:24;;;;;;;0.80;0.60;;;13.60;1.00;;;;;;5018678;28;20041;-72
2021/01/21 11:36:50;;;;;;;2.03;0.75;;;13.70;8.60;;;;;;5018565;28;20029;-71
2021/01/21 11:39:16;;;;;;;0.50;0.50;;;13.80;97.60;;;;;;5015791;28;20034;-71
2021/01/21 11:41:42;;;;;;;0.50;0.40;;;13.60;99.90;;;;;;5016132;28;20053;-73
2021/01/21 11:44:07;;;;;;;1.10;0.60;;;13.50;99.90;;;;;;5015301;28;20101;-72
2021/01/21 11:46:33;;;;;;;0.50;0.50;;;13.60;99.90;;;;;;5013947;28;20026;-72
2021/01/21 11:48:58;;;;;;;1.90;1.05;;;13.50;99.90;;;;;;5017252;28;20026;-72
2021/01/21 11:51:24;;;;;;;1.05;0.85;;;13.40;99.90;;;;;;5017635;28;20092;-71
2021/01/21 11:53:50;;;;;;;3.60;0.98;;;13.40;99.90;;;;;;5016486;28;20105;-75
2021/01/21 11:56:16;;;;;;;1.83;0.82;;;13.30;99.90;;;;;;5017737;28;20545;-71
2021/01/21 11:58:42;;;;;;;3.33;0.75;;;13.20;99.90;;;;;;5017326;28;20028;-71
2021/01/21 12:01:08;;;;;;;2.00;0.88;;;13.30;14.20;;;;;;5016660;28;20018;-72
2021/01/21 12:03:34;;;;;;;2.83;2.03;;;13.30;1.00;;;;;;5021739;28;20021;-72
2021/01/21 12:06:00;;;;;;;1.77;1.02;;;13.40;1.00;;;;;;5023429;28;20382;-71
2021/01/21 12:08:26;;;;;;;1.30;0.70;;;13.30;1.00;;;;;;5024950;28;20096;-71
2021/01/21 12:10:52;;;;;;;2.40;0.93;;;13.40;99.90;;;;;;5017420;28;20038;-72
2021/01/21 12:13:17;;;;;;;1.23;0.90;;;13.40;99.90;;;;;;5013018;28;20145;-71
2021/01/21 12:15:43;;;;;;;3.13;0.70;;;13.30;1.00;;;;;;5012894;28;20033;-72
2021/01/21 12:18:09;;;;;;;3.40;0.77;;;13.50;99.90;;;;;;5016090;28;20058;-72
2021/01/21 12:20:35;;;;;;;1.17;0.70;;;13.50;16.30;;;;;;5014143;28;20083;-72
2021/01/21 12:23:01;;;;;;;0.95;0.80;;;13.40;99.90;;;;;;5014871;28;20104;-71
2021/01/21 12:25:26;;;;;;;4.90;1.08;;;13.40;99.90;;;;;;5014030;28;20026;-73
2021/01/21 12:27:52;;;;;;;2.50;0.70;;;13.50;99.90;;;;;;5014066;28;20033;-72
2021/01/21 12:30:18;;;;;;;1.70;0.80;;;13.50;99.90;;;;;;5014033;28;20033;-72
2021/01/21 12:32:43;;;;;;;1.00;0.63;;;13.50;1.00;;;;;;5014451;28;20064;-71
2021/01/21 12:35:09;;;;;;;4.65;1.90;;;13.60;2.30;;;;;;5016074;28;20105;-71
2021/01/21 12:37:36;;;;;;;3.40;0.70;;;13.80;99.90;;;;;;5016368;28;20030;-70
2021/01/21 12:40:02;;;;;;;1.58;1.02;;;13.80;99.90;;;;;;5018173;28;20014;-72
2021/01/21 12:42:28;;;;;;;3.95;1.13;;;13.70;99.90;;;;;;5019386;28;20434;-71
2021/01/21 12:44:53;;;;;;;2.35;0.70;;;13.70;1.00;;;;;;5018229;28;20067;-72
2021/01/21 12:47:19;;;;;;;1.33;0.73;;;13.60;2.10;;;;;;5014007;28;20026;-71
2021/01/21 12:49:44;;;;;;;3.67;0.70;;;13.70;99.90;;;;;;5014835;28;20136;-71
2021/01/21 12:52:11;;;;;;;4.20;0.75;;;13.70;99.90;;;;;;5013191;28;20021;-72
2021/01/21 12:54:37;;;;;;;2.05;0.52;;;13.50;99.90;;;;;;5015411;28;20022;-72
2021/01/21 12:57:03;;;;;;;6.75;0.85;;;13.50;1.00;;;;;;5015878;28;20516;-70
2021/01/21 12:59:28;;;;;;;1.73;0.80;;;13.50;1.00;;;;;;5015026;28;20022;-71
2021/01/21 13:01:55;;;;;;;0.70;0.65;;;13.70;99.90;;;;;;5014787;28;20076;-71
2021/01/21 13:04:20;;;;;;;1.67;0.95;;;13.60;1.00;;;;;;5016902;28;20022;-71